sensor_id;sensor_type;location;lat;lon;timestamp;pressure;altitude;pressure_sealevel;temperature;humidity
26531;BME280;14201;43.188;24.160;2022-12-19T00:00:48;101824.44;;;0.57;81.86
26531;BME280;14201;43.188;24.160;2022-12-19T00:03:14;101811.28;;;0.47;81.96
26531;BME280;14201;43.188;24.160;2022-12-19T00:05:40;101815.28;;;0.52;81.17
26531;BME280;14201;43.188;24.160;2022-12-19T00:08:13;101824.09;;;0.47;81.72
26531;BME280;14201;43.188;24.160;2022-12-19T00:10:39;101829.03;;;0.45;82.17
26531;BME280;14201;43.188;24.160;2022-12-19T00:13:04;101824.44;;;0.43;81.96
26531;BME280;14201;43.188;24.160;2022-12-19T00:15:32;101832.88;;;0.49;81.80
26531;BME280;14201;43.188;24.160;2022-12-19T00:17:58;101840.00;;;0.58;81.91
26531;BME280;14201;43.188;24.160;2022-12-19T00:20:23;101836.16;;;0.55;81.63
26531;BME280;14201;43.188;24.160;2022-12-19T00:22:49;101824.09;;;0.47;81.28
26531;BME280;14201;43.188;24.160;2022-12-19T00:25:14;101853.00;;;0.53;81.37
26531;BME280;14201;43.188;24.160;2022-12-19T00:27:40;101853.00;;;0.53;81.81
26531;BME280;14201;43.188;24.160;2022-12-19T00:30:06;101853.91;;;0.46;82.39
26531;BME280;14201;43.188;24.160;2022-12-19T00:32:31;101841.66;;;0.44;82.73
26531;BME280;14201;43.188;24.160;2022-12-19T00:34:57;101856.69;;;0.26;82.62
26531;BME280;14201;43.188;24.160;2022-12-19T00:37:22;101851.72;;;0.35;81.87
26531;BME280;14201;43.188;24.160;2022-12-19T00:39:48;101867.28;;;0.36;81.38
26531;BME280;14201;43.188;24.160;2022-12-19T00:42:13;101859.06;;;0.17;81.59
26531;BME280;14201;43.188;24.160;2022-12-19T00:44:39;101868.75;;;0.13;82.00
26531;BME280;14201;43.188;24.160;2022-12-19T00:47:04;101864.00;;;0.02;82.30
26531;BME280;14201;43.188;24.160;2022-12-19T00:49:30;101870.06;;;0.02;82.83
26531;BME280;14201;43.188;24.160;2022-12-19T00:51:55;101872.78;;;0.11;83.66
26531;BME280;14201;43.188;24.160;2022-12-19T00:54:22;101863.28;;;0.10;84.78
26531;BME280;14201;43.188;24.160;2022-12-19T00:56:48;101870.03;;;0.09;85.60
26531;BME280;14201;43.188;24.160;2022-12-19T00:59:13;101873.00;;;0.19;86.13
26531;BME280;14201;43.188;24.160;2022-12-19T01:01:40;101875.19;;;0.24;86.31
26531;BME280;14201;43.188;24.160;2022-12-19T01:04:08;101863.09;;;0.37;86.40
26531;BME280;14201;43.188;24.160;2022-12-19T01:06:36;101871.31;;;0.49;85.70
26531;BME280;14201;43.188;24.160;2022-12-19T01:09:02;101869.28;;;0.53;84.99
26531;BME280;14201;43.188;24.160;2022-12-19T01:11:27;101870.56;;;0.50;85.37
26531;BME280;14201;43.188;24.160;2022-12-19T01:14:12;101867.09;;;0.49;86.15
26531;BME280;14201;43.188;24.160;2022-12-19T01:16:38;101869.47;;;0.55;86.71
26531;BME280;14201;43.188;24.160;2022-12-19T01:19:04;101868.34;;;0.67;86.00
26531;BME280;14201;43.188;24.160;2022-12-19T01:21:29;101872.03;;;0.55;86.90
26531;BME280;14201;43.188;24.160;2022-12-19T01:23:55;101871.28;;;0.63;86.48
26531;BME280;14201;43.188;24.160;2022-12-19T01:26:20;101872.41;;;0.44;87.58
26531;BME280;14201;43.188;24.160;2022-12-19T01:28:46;101872.41;;;0.44;88.21
26531;BME280;14201;43.188;24.160;2022-12-19T01:31:11;101868.03;;;-0.01;90.00
26531;BME280;14201;43.188;24.160;2022-12-19T01:33:37;101862.53;;;0.04;90.69
26531;BME280;14201;43.188;24.160;2022-12-19T01:36:03;101862.91;;;0.21;90.35
26531;BME280;14201;43.188;24.160;2022-12-19T01:38:32;101870.03;;;0.38;89.27
26531;BME280;14201;43.188;24.160;2022-12-19T01:40:58;101862.53;;;0.39;88.39
26531;BME280;14201;43.188;24.160;2022-12-19T01:43:26;101859.97;;;0.39;88.74
26531;BME280;14201;43.188;24.160;2022-12-19T01:45:58;101854.63;;;0.52;88.37
26531;BME280;14201;43.188;24.160;2022-12-19T01:48:39;101859.94;;;0.61;87.62
26531;BME280;14201;43.188;24.160;2022-12-19T01:51:18;101855.16;;;0.71;87.07
26531;BME280;14201;43.188;24.160;2022-12-19T01:53:53;101846.16;;;0.75;86.97
26531;BME280;14201;43.188;24.160;2022-12-19T01:56:26;101851.84;;;0.80;86.89
26531;BME280;14201;43.188;24.160;2022-12-19T01:58:54;101854.94;;;0.84;87.73
26531;BME280;14201;43.188;24.160;2022-12-19T02:01:21;101838.66;;;0.84;87.71
26531;BME280;14201;43.188;24.160;2022-12-19T02:03:47;101840.28;;;0.83;88.05
26531;BME280;14201;43.188;24.160;2022-12-19T02:06:14;101850.72;;;0.85;88.35
26531;BME280;14201;43.188;24.160;2022-12-19T02:08:40;101858.41;;;0.99;88.21
26531;BME280;14201;43.188;24.160;2022-12-19T02:11:06;101855.78;;;1.06;87.73
26531;BME280;14201;43.188;24.160;2022-12-19T02:13:31;101827.22;;;0.96;87.59
26531;BME280;14201;43.188;24.160;2022-12-19T02:21:29;101857.75;;;1.16;87.02
26531;BME280;14201;43.188;24.160;2022-12-19T02:32:36;101868.19;;;1.25;87.42
26531;BME280;14201;43.188;24.160;2022-12-19T02:38:13;101863.88;;;1.40;86.78
26531;BME280;14201;43.188;24.160;2022-12-19T02:43:19;101865.59;;;1.32;86.71
26531;BME280;14201;43.188;24.160;2022-12-19T02:45:47;101862.06;;;1.38;86.68
26531;BME280;14201;43.188;24.160;2022-12-19T02:48:13;101864.81;;;1.40;86.37
26531;BME280;14201;43.188;24.160;2022-12-19T02:50:44;101865.50;;;1.46;86.55
26531;BME280;14201;43.188;24.160;2022-12-19T02:53:12;101858.53;;;1.45;85.69
26531;BME280;14201;43.188;24.160;2022-12-19T02:55:48;101849.41;;;1.40;85.98
26531;BME280;14201;43.188;24.160;2022-12-19T03:01:12;101830.13;;;1.06;88.24
26531;BME280;14201;43.188;24.160;2022-12-19T03:03:58;101841.66;;;1.10;88.60
26531;BME280;14201;43.188;24.160;2022-12-19T03:06:59;101838.50;;;1.20;88.07
26531;BME280;14201;43.188;24.160;2022-12-19T03:12:20;101833.19;;;1.18;89.09
26531;BME280;14201;43.188;24.160;2022-12-19T03:14:49;101853.91;;;1.12;89.14
26531;BME280;14201;43.188;24.160;2022-12-19T03:17:15;101844.78;;;1.14;89.92
26531;BME280;14201;43.188;24.160;2022-12-19T03:19:41;101844.59;;;1.06;89.89
26531;BME280;14201;43.188;24.160;2022-12-19T03:22:07;101846.59;;;1.08;90.00
26531;BME280;14201;43.188;24.160;2022-12-19T03:24:32;101837.91;;;1.29;87.98
26531;BME280;14201;43.188;24.160;2022-12-19T03:27:07;101856.56;;;1.35;87.00
26531;BME280;14201;43.188;24.160;2022-12-19T03:29:37;101855.25;;;1.39;87.01
26531;BME280;14201;43.188;24.160;2022-12-19T03:32:06;101851.50;;;1.28;87.69
26531;BME280;14201;43.188;24.160;2022-12-19T03:34:48;101866.22;;;1.45;86.55
26531;BME280;14201;43.188;24.160;2022-12-19T03:37:20;101861.88;;;1.37;86.74
26531;BME280;14201;43.188;24.160;2022-12-19T03:39:52;101870.66;;;1.39;86.64
26531;BME280;14201;43.188;24.160;2022-12-19T03:42:20;101869.94;;;1.40;87.23
26531;BME280;14201;43.188;24.160;2022-12-19T03:45:06;101868.66;;;1.44;86.92
26531;BME280;14201;43.188;24.160;2022-12-19T03:47:50;101876.47;;;1.52;86.50
26531;BME280;14201;43.188;24.160;2022-12-19T03:50:22;101875.25;;;1.42;86.55
26531;BME280;14201;43.188;24.160;2022-12-19T03:53:02;101876.84;;;1.55;85.94
26531;BME280;14201;43.188;24.160;2022-12-19T03:55:46;101881.28;;;1.49;85.64
26531;BME280;14201;43.188;24.160;2022-12-19T03:58:17;101883.66;;;1.48;86.06
26531;BME280;14201;43.188;24.160;2022-12-19T04:00:45;101884.38;;;1.54;86.46
26531;BME280;14201;43.188;24.160;2022-12-19T04:03:17;101884.94;;;1.51;86.26
26531;BME280;14201;43.188;24.160;2022-12-19T04:05:45;101888.59;;;1.53;86.25
26531;BME280;14201;43.188;24.160;2022-12-19T04:08:13;101891.31;;;1.55;85.96
26531;BME280;14201;43.188;24.160;2022-12-19T04:10:49;101888.66;;;1.39;86.36
26531;BME280;14201;43.188;24.160;2022-12-19T04:13:22;101887.31;;;1.50;85.78
26531;BME280;14201;43.188;24.160;2022-12-19T04:18:20;101886.25;;;1.41;86.86
26531;BME280;14201;43.188;24.160;2022-12-19T04:20:54;101902.75;;;1.43;87.14
26531;BME280;14201;43.188;24.160;2022-12-19T04:23:27;101896.31;;;1.46;86.76
26531;BME280;14201;43.188;24.160;2022-12-19T04:26:01;101898.13;;;1.47;86.87
26531;BME280;14201;43.188;24.160;2022-12-19T04:28:33;101893.06;;;1.40;87.47
26531;BME280;14201;43.188;24.160;2022-12-19T04:31:00;101901.59;;;1.55;87.34
26531;BME280;14201;43.188;24.160;2022-12-19T04:33:26;101901.47;;;1.46;88.07
26531;BME280;14201;43.188;24.160;2022-12-19T04:35:53;101907.78;;;1.64;86.92
26531;BME280;14201;43.188;24.160;2022-12-19T04:38:18;101900.66;;;1.62;86.77
26531;BME280;14201;43.188;24.160;2022-12-19T04:40:44;101899.25;;;1.49;87.42
26531;BME280;14201;43.188;24.160;2022-12-19T04:43:09;101904.63;;;1.36;88.76
26531;BME280;14201;43.188;24.160;2022-12-19T04:45:35;101903.34;;;1.33;89.11
26531;BME280;14201;43.188;24.160;2022-12-19T04:48:01;101896.41;;;1.32;89.25
26531;BME280;14201;43.188;24.160;2022-12-19T04:50:26;101903.16;;;1.31;90.13
26531;BME280;14201;43.188;24.160;2022-12-19T04:52:52;101882.59;;;1.38;89.44
26531;BME280;14201;43.188;24.160;2022-12-19T04:55:17;101893.78;;;1.39;89.43
26531;BME280;14201;43.188;24.160;2022-12-19T04:57:44;101907.47;;;1.09;91.09
26531;BME280;14201;43.188;24.160;2022-12-19T05:00:10;101910.94;;;1.17;91.40
26531;BME280;14201;43.188;24.160;2022-12-19T05:02:36;101915.28;;;1.25;90.66
26531;BME280;14201;43.188;24.160;2022-12-19T05:05:02;101920.28;;;1.16;91.25
26531;BME280;14201;43.188;24.160;2022-12-19T05:07:28;101909.63;;;1.21;90.88
26531;BME280;14201;43.188;24.160;2022-12-19T05:09:53;101908.69;;;1.20;90.67
26531;BME280;14201;43.188;24.160;2022-12-19T05:12:19;101915.66;;;1.28;89.87
26531;BME280;14201;43.188;24.160;2022-12-19T05:14:44;101925.50;;;1.40;88.22
26531;BME280;14201;43.188;24.160;2022-12-19T05:17:10;101926.81;;;1.36;88.01
26531;BME280;14201;43.188;24.160;2022-12-19T05:19:36;101920.16;;;1.45;86.90
26531;BME280;14201;43.188;24.160;2022-12-19T05:22:01;101931.16;;;1.51;87.18
26531;BME280;14201;43.188;24.160;2022-12-19T05:24:27;101931.78;;;1.34;87.14
26531;BME280;14201;43.188;24.160;2022-12-19T05:26:52;101925.72;;;1.34;87.37
26531;BME280;14201;43.188;24.160;2022-12-19T05:29:18;101920.59;;;1.34;87.78
26531;BME280;14201;43.188;24.160;2022-12-19T05:31:43;101928.28;;;1.34;88.23
26531;BME280;14201;43.188;24.160;2022-12-19T05:34:09;101925.34;;;1.31;88.81
26531;BME280;14201;43.188;24.160;2022-12-19T05:36:34;101931.06;;;1.28;89.44
26531;BME280;14201;43.188;24.160;2022-12-19T05:39:00;101927.19;;;1.32;90.30
26531;BME280;14201;43.188;24.160;2022-12-19T05:41:26;101924.84;;;1.26;91.55
26531;BME280;14201;43.188;24.160;2022-12-19T05:43:53;101923.38;;;1.28;91.74
26531;BME280;14201;43.188;24.160;2022-12-19T05:46:20;101929.72;;;1.39;91.89
26531;BME280;14201;43.188;24.160;2022-12-19T05:48:47;101932.97;;;1.52;90.78
26531;BME280;14201;43.188;24.160;2022-12-19T05:51:12;101935.84;;;1.63;90.13
26531;BME280;14201;43.188;24.160;2022-12-19T05:53:39;101938.09;;;1.60;89.42
26531;BME280;14201;43.188;24.160;2022-12-19T05:58:33;101945.78;;;1.60;90.63
26531;BME280;14201;43.188;24.160;2022-12-19T06:01:04;101941.94;;;1.63;90.57
26531;BME280;14201;43.188;24.160;2022-12-19T06:03:29;101946.84;;;1.69;90.34
26531;BME280;14201;43.188;24.160;2022-12-19T06:05:55;101940.75;;;1.75;89.65
26531;BME280;14201;43.188;24.160;2022-12-19T06:08:21;101944.78;;;1.81;89.32
26531;BME280;14201;43.188;24.160;2022-12-19T06:10:47;101939.78;;;1.82;88.51
26531;BME280;14201;43.188;24.160;2022-12-19T06:13:12;101952.19;;;2.01;87.66
26531;BME280;14201;43.188;24.160;2022-12-19T06:15:38;101961.19;;;1.97;87.00
26531;BME280;14201;43.188;24.160;2022-12-19T06:18:03;101955.56;;;1.85;86.53
26531;BME280;14201;43.188;24.160;2022-12-19T06:20:29;101965.88;;;1.78;87.34
26531;BME280;14201;43.188;24.160;2022-12-19T06:22:54;101965.47;;;1.82;87.60
26531;BME280;14201;43.188;24.160;2022-12-19T06:25:20;101972.13;;;2.10;85.69
26531;BME280;14201;43.188;24.160;2022-12-19T06:27:45;101970.13;;;2.08;85.53
26531;BME280;14201;43.188;24.160;2022-12-19T06:30:11;101967.22;;;1.97;85.82
26531;BME280;14201;43.188;24.160;2022-12-19T06:32:37;101972.38;;;1.97;85.58
26531;BME280;14201;43.188;24.160;2022-12-19T06:35:03;101978.84;;;1.94;86.07
26531;BME280;14201;43.188;24.160;2022-12-19T06:37:28;101978.25;;;2.04;85.86
26531;BME280;14201;43.188;24.160;2022-12-19T06:39:54;101979.84;;;2.10;84.69
26531;BME280;14201;43.188;24.160;2022-12-19T06:42:19;101984.09;;;2.03;84.88
26531;BME280;14201;43.188;24.160;2022-12-19T06:44:49;101989.44;;;2.04;85.67
26531;BME280;14201;43.188;24.160;2022-12-19T06:47:15;101992.88;;;2.12;86.13
26531;BME280;14201;43.188;24.160;2022-12-19T06:49:40;101996.16;;;2.11;86.10
26531;BME280;14201;43.188;24.160;2022-12-19T06:52:06;101992.66;;;2.17;86.52
26531;BME280;14201;43.188;24.160;2022-12-19T06:54:31;102007.88;;;2.23;86.97
26531;BME280;14201;43.188;24.160;2022-12-19T06:56:57;102011.34;;;2.24;87.21
26531;BME280;14201;43.188;24.160;2022-12-19T06:59:23;102007.66;;;2.29;86.72
26531;BME280;14201;43.188;24.160;2022-12-19T07:02:03;102015.44;;;2.45;85.40
26531;BME280;14201;43.188;24.160;2022-12-19T07:04:40;102012.50;;;2.42;85.69
26531;BME280;14201;43.188;24.160;2022-12-19T07:07:07;102018.56;;;2.42;86.35
26531;BME280;14201;43.188;24.160;2022-12-19T07:09:34;102016.63;;;2.55;86.16
26531;BME280;14201;43.188;24.160;2022-12-19T07:12:00;102025.97;;;2.62;85.81
26531;BME280;14201;43.188;24.160;2022-12-19T07:14:26;102025.22;;;2.63;86.17
26531;BME280;14201;43.188;24.160;2022-12-19T07:16:52;102035.81;;;2.73;85.75
26531;BME280;14201;43.188;24.160;2022-12-19T07:19:20;102038.41;;;2.73;85.45
26531;BME280;14201;43.188;24.160;2022-12-19T07:21:46;102034.47;;;2.77;85.20
26531;BME280;14201;43.188;24.160;2022-12-19T07:24:12;102026.94;;;2.79;84.45
26531;BME280;14201;43.188;24.160;2022-12-19T07:26:40;102034.19;;;2.90;84.13
26531;BME280;14201;43.188;24.160;2022-12-19T07:29:07;102040.47;;;2.85;84.63
26531;BME280;14201;43.188;24.160;2022-12-19T07:31:33;102039.69;;;2.93;85.13
26531;BME280;14201;43.188;24.160;2022-12-19T07:33:59;102042.56;;;3.03;84.73
26531;BME280;14201;43.188;24.160;2022-12-19T07:36:24;102055.59;;;3.05;85.84
26531;BME280;14201;43.188;24.160;2022-12-19T07:38:50;102053.16;;;3.06;86.17
26531;BME280;14201;43.188;24.160;2022-12-19T07:41:16;102040.16;;;3.05;86.51
26531;BME280;14201;43.188;24.160;2022-12-19T07:43:41;102054.88;;;3.22;86.21
26531;BME280;14201;43.188;24.160;2022-12-19T07:46:07;102055.47;;;3.35;84.81
26531;BME280;14201;43.188;24.160;2022-12-19T07:48:32;102030.97;;;3.23;84.59
26531;BME280;14201;43.188;24.160;2022-12-19T07:50:58;102054.00;;;3.37;84.67
26531;BME280;14201;43.188;24.160;2022-12-19T07:53:23;102056.69;;;3.46;84.23
26531;BME280;14201;43.188;24.160;2022-12-19T07:55:50;102059.84;;;3.43;84.28
26531;BME280;14201;43.188;24.160;2022-12-19T07:58:16;102054.81;;;3.45;83.95
26531;BME280;14201;43.188;24.160;2022-12-19T08:00:42;102063.16;;;3.58;82.62
26531;BME280;14201;43.188;24.160;2022-12-19T08:03:07;102063.34;;;3.60;82.22
26531;BME280;14201;43.188;24.160;2022-12-19T08:05:33;102067.75;;;3.77;80.84
26531;BME280;14201;43.188;24.160;2022-12-19T08:07:58;102071.59;;;3.80;78.10
26531;BME280;14201;43.188;24.160;2022-12-19T08:10:24;102070.22;;;3.68;78.01
26531;BME280;14201;43.188;24.160;2022-12-19T08:12:50;102079.03;;;3.70;78.34
26531;BME280;14201;43.188;24.160;2022-12-19T08:15:16;102081.91;;;3.80;78.48
26531;BME280;14201;43.188;24.160;2022-12-19T08:17:41;102088.03;;;3.73;78.09
26531;BME280;14201;43.188;24.160;2022-12-19T08:20:07;102083.47;;;3.71;78.54
26531;BME280;14201;43.188;24.160;2022-12-19T08:22:33;102080.97;;;3.64;77.44
26531;BME280;14201;43.188;24.160;2022-12-19T08:24:59;102085.44;;;3.73;78.45
26531;BME280;14201;43.188;24.160;2022-12-19T08:27:25;102085.13;;;3.70;78.42
26531;BME280;14201;43.188;24.160;2022-12-19T08:29:51;102089.44;;;3.63;78.33
26531;BME280;14201;43.188;24.160;2022-12-19T08:32:16;102092.81;;;3.54;78.55
26531;BME280;14201;43.188;24.160;2022-12-19T08:34:42;102089.63;;;3.41;79.06
26531;BME280;14201;43.188;24.160;2022-12-19T08:37:08;102082.09;;;3.59;79.55
26531;BME280;14201;43.188;24.160;2022-12-19T08:39:35;102073.22;;;3.64;77.91
26531;BME280;14201;43.188;24.160;2022-12-19T08:42:01;102075.19;;;3.50;78.30
26531;BME280;14201;43.188;24.160;2022-12-19T08:44:26;102080.13;;;3.72;78.96
26531;BME280;14201;43.188;24.160;2022-12-19T08:46:52;102074.66;;;3.69;78.83
26531;BME280;14201;43.188;24.160;2022-12-19T08:49:18;102076.56;;;3.79;77.93
26531;BME280;14201;43.188;24.160;2022-12-19T08:51:44;102051.47;;;3.69;78.15
26531;BME280;14201;43.188;24.160;2022-12-19T08:54:10;102070.56;;;3.87;78.37
26531;BME280;14201;43.188;24.160;2022-12-19T08:56:36;102058.03;;;3.90;76.91
26531;BME280;14201;43.188;24.160;2022-12-19T08:59:02;102059.59;;;3.81;78.36
26531;BME280;14201;43.188;24.160;2022-12-19T09:01:28;102059.91;;;3.84;79.16
26531;BME280;14201;43.188;24.160;2022-12-19T09:03:57;102053.44;;;4.03;78.41
26531;BME280;14201;43.188;24.160;2022-12-19T09:06:22;102056.94;;;4.04;76.90
26531;BME280;14201;43.188;24.160;2022-12-19T09:08:48;102058.22;;;4.16;77.04
26531;BME280;14201;43.188;24.160;2022-12-19T09:11:17;102053.50;;;4.12;76.87
26531;BME280;14201;43.188;24.160;2022-12-19T09:13:44;102046.00;;;4.22;77.86
26531;BME280;14201;43.188;24.160;2022-12-19T09:18:37;102031.41;;;4.39;75.74
26531;BME280;14201;43.188;24.160;2022-12-19T09:21:02;102021.06;;;4.39;76.05
26531;BME280;14201;43.188;24.160;2022-12-19T09:23:29;102021.34;;;4.33;75.98
26531;BME280;14201;43.188;24.160;2022-12-19T09:26:00;102006.59;;;4.32;76.32
26531;BME280;14201;43.188;24.160;2022-12-19T09:28:26;102003.50;;;4.43;76.95
26531;BME280;14201;43.188;24.160;2022-12-19T09:31:00;102011.06;;;4.42;76.21
26531;BME280;14201;43.188;24.160;2022-12-19T09:33:27;101995.53;;;4.33;76.26
26531;BME280;14201;43.188;24.160;2022-12-19T09:35:54;101994.22;;;4.37;74.70
26531;BME280;14201;43.188;24.160;2022-12-19T09:38:22;101989.97;;;4.46;75.03
26531;BME280;14201;43.188;24.160;2022-12-19T09:48:54;101983.44;;;4.65;74.35
26531;BME280;14201;43.188;24.160;2022-12-19T09:51:34;101979.38;;;4.76;73.40
26531;BME280;14201;43.188;24.160;2022-12-19T09:56:43;101968.66;;;4.89;72.64
26531;BME280;14201;43.188;24.160;2022-12-19T09:59:15;101967.03;;;5.07;72.14
26531;BME280;14201;43.188;24.160;2022-12-19T10:01:56;101960.94;;;5.06;71.78
26531;BME280;14201;43.188;24.160;2022-12-19T10:04:24;101965.84;;;5.21;71.78
26531;BME280;14201;43.188;24.160;2022-12-19T10:06:51;101959.16;;;5.23;71.29
26531;BME280;14201;43.188;24.160;2022-12-19T10:09:18;101950.19;;;5.19;71.62
26531;BME280;14201;43.188;24.160;2022-12-19T10:11:56;101958.25;;;5.31;70.73
26531;BME280;14201;43.188;24.160;2022-12-19T10:14:56;101955.25;;;5.35;72.34
26531;BME280;14201;43.188;24.160;2022-12-19T10:17:37;101958.13;;;5.38;73.22
26531;BME280;14201;43.188;24.160;2022-12-19T10:20:29;101953.09;;;5.48;73.38
26531;BME280;14201;43.188;24.160;2022-12-19T10:33:43;101928.03;;;5.65;70.00
26531;BME280;14201;43.188;24.160;2022-12-19T10:36:10;101929.84;;;5.66;71.68
26531;BME280;14201;43.188;24.160;2022-12-19T10:38:46;101931.22;;;5.71;72.47
26531;BME280;14201;43.188;24.160;2022-12-19T10:41:27;101927.25;;;5.83;68.93
26531;BME280;14201;43.188;24.160;2022-12-19T10:44:04;101926.50;;;5.84;69.52
26531;BME280;14201;43.188;24.160;2022-12-19T10:48:56;101925.88;;;5.69;69.17
26531;BME280;14201;43.188;24.160;2022-12-19T10:51:26;101919.81;;;5.69;69.88
26531;BME280;14201;43.188;24.160;2022-12-19T10:53:54;101916.03;;;5.74;69.75
26531;BME280;14201;43.188;24.160;2022-12-19T10:56:23;101885.31;;;5.68;68.29
26531;BME280;14201;43.188;24.160;2022-12-19T10:58:54;101914.03;;;5.63;68.35
26531;BME280;14201;43.188;24.160;2022-12-19T11:01:27;101908.56;;;5.42;70.23
26531;BME280;14201;43.188;24.160;2022-12-19T11:04:13;101910.84;;;5.30;72.10
26531;BME280;14201;43.188;24.160;2022-12-19T11:06:47;101907.19;;;5.28;70.84
26531;BME280;14201;43.188;24.160;2022-12-19T11:09:20;101903.56;;;5.35;70.23
26531;BME280;14201;43.188;24.160;2022-12-19T11:11:50;101892.13;;;5.50;70.61
26531;BME280;14201;43.188;24.160;2022-12-19T11:14:26;101893.22;;;5.70;71.74
26531;BME280;14201;43.188;24.160;2022-12-19T11:16:51;101903.09;;;5.65;70.92
26531;BME280;14201;43.188;24.160;2022-12-19T11:21:52;101894.25;;;5.98;70.65
26531;BME280;14201;43.188;24.160;2022-12-19T11:24:28;101896.84;;;5.89;69.72
26531;BME280;14201;43.188;24.160;2022-12-19T11:26:55;101899.25;;;5.88;71.10
26531;BME280;14201;43.188;24.160;2022-12-19T11:32:34;101910.03;;;6.10;71.01
26531;BME280;14201;43.188;24.160;2022-12-19T11:35:01;101904.13;;;6.11;70.18
26531;BME280;14201;43.188;24.160;2022-12-19T11:43:00;101905.66;;;5.48;70.59
26531;BME280;14201;43.188;24.160;2022-12-19T11:45:43;101908.56;;;5.60;71.63
26531;BME280;14201;43.188;24.160;2022-12-19T11:54:01;101907.03;;;5.62;70.44
26531;BME280;14201;43.188;24.160;2022-12-19T11:56:30;101899.59;;;5.47;70.49
26531;BME280;14201;43.188;24.160;2022-12-19T11:59:19;101891.09;;;5.57;70.84
26531;BME280;14201;43.188;24.160;2022-12-19T12:05:08;101895.34;;;5.74;71.28
26531;BME280;14201;43.188;24.160;2022-12-19T12:07:45;101896.84;;;5.46;71.29
26531;BME280;14201;43.188;24.160;2022-12-19T12:10:17;101905.84;;;5.49;71.81
26531;BME280;14201;43.188;24.160;2022-12-19T12:18:14;101907.19;;;5.28;71.76
26531;BME280;14201;43.188;24.160;2022-12-19T12:40:39;101913.25;;;5.64;72.47
26531;BME280;14201;43.188;24.160;2022-12-19T12:46:25;101906.25;;;5.89;70.11
26531;BME280;14201;43.188;24.160;2022-12-19T12:49:03;101908.88;;;5.98;70.44
26531;BME280;14201;43.188;24.160;2022-12-19T12:51:31;101912.78;;;6.03;70.29
26531;BME280;14201;43.188;24.160;2022-12-19T12:54:04;101909.78;;;6.07;70.19
26531;BME280;14201;43.188;24.160;2022-12-19T12:56:35;101910.03;;;6.10;70.98
26531;BME280;14201;43.188;24.160;2022-12-19T12:59:04;101889.34;;;6.10;71.16
26531;BME280;14201;43.188;24.160;2022-12-19T13:01:36;101903.19;;;6.19;71.87
26531;BME280;14201;43.188;24.160;2022-12-19T13:07:13;101905.84;;;5.49;73.56
26531;BME280;14201;43.188;24.160;2022-12-19T13:09:33;101911.47;;;5.45;74.75
26531;BME280;14201;43.188;24.160;2022-12-19T13:12:26;101894.13;;;5.36;75.01
26531;BME280;14201;43.188;24.160;2022-12-19T13:23:03;101914.50;;;5.41;75.70
26531;BME280;14201;43.188;24.160;2022-12-19T13:28:35;101913.28;;;5.46;76.74
26531;BME280;14201;43.188;24.160;2022-12-19T13:33:46;101917.09;;;5.59;76.97
26531;BME280;14201;43.188;24.160;2022-12-19T13:36:44;101909.19;;;5.57;77.12
26531;BME280;14201;43.188;24.160;2022-12-19T13:39:32;101916.16;;;5.67;76.55
26531;BME280;14201;43.188;24.160;2022-12-19T13:42:16;101913.16;;;5.62;76.60
26531;BME280;14201;43.188;24.160;2022-12-19T13:45:29;101916.03;;;5.57;76.38
26531;BME280;14201;43.188;24.160;2022-12-19T13:47:55;101930.59;;;5.56;75.79
26531;BME280;14201;43.188;24.160;2022-12-19T13:50:36;101935.47;;;5.62;75.18
26531;BME280;14201;43.188;24.160;2022-12-19T13:53:08;101935.66;;;5.55;75.11
26531;BME280;14201;43.188;24.160;2022-12-19T13:55:39;101930.03;;;5.59;74.88
26531;BME280;14201;43.188;24.160;2022-12-19T13:58:04;101928.63;;;5.53;73.61
26531;BME280;14201;43.188;24.160;2022-12-19T14:00:35;101929.97;;;5.32;73.47
26531;BME280;14201;43.188;24.160;2022-12-19T14:03:14;101939.38;;;5.15;73.96
26531;BME280;14201;43.188;24.160;2022-12-19T14:05:42;101942.72;;;5.13;74.76
26531;BME280;14201;43.188;24.160;2022-12-19T14:08:08;101950.47;;;5.13;74.12
26531;BME280;14201;43.188;24.160;2022-12-19T14:10:42;101943.50;;;5.21;74.99
26531;BME280;14201;43.188;24.160;2022-12-19T14:13:14;101952.75;;;5.19;73.76
26531;BME280;14201;43.188;24.160;2022-12-19T14:16:00;101955.34;;;5.19;74.45
26531;BME280;14201;43.188;24.160;2022-12-19T14:18:28;101952.91;;;5.12;73.71
26531;BME280;14201;43.188;24.160;2022-12-19T14:21:15;101964.00;;;5.02;74.18
26531;BME280;14201;43.188;24.160;2022-12-19T14:23:42;101963.66;;;4.99;74.04
26531;BME280;14201;43.188;24.160;2022-12-19T14:26:12;101950.88;;;4.92;74.78
26531;BME280;14201;43.188;24.160;2022-12-19T14:28:43;101949.06;;;4.91;74.75
26531;BME280;14201;43.188;24.160;2022-12-19T14:31:13;101937.66;;;4.89;74.95
26531;BME280;14201;43.188;24.160;2022-12-19T14:33:51;101933.69;;;4.84;73.75
26531;BME280;14201;43.188;24.160;2022-12-19T14:36:24;101929.47;;;4.93;73.17
26531;BME280;14201;43.188;24.160;2022-12-19T14:38:50;101902.81;;;4.77;72.42
26531;BME280;14201;43.188;24.160;2022-12-19T14:41:34;101923.53;;;4.85;70.21
26531;BME280;14201;43.188;24.160;2022-12-19T14:44:19;101919.09;;;4.84;70.13
26531;BME280;14201;43.188;24.160;2022-12-19T14:47:03;101917.41;;;4.76;69.77
26531;BME280;14201;43.188;24.160;2022-12-19T14:49:33;101920.31;;;4.88;69.28
26531;BME280;14201;43.188;24.160;2022-12-19T14:57:47;101913.53;;;4.55;70.61
26531;BME280;14201;43.188;24.160;2022-12-19T15:00:25;101946.41;;;4.73;71.15
26531;BME280;14201;43.188;24.160;2022-12-19T15:02:51;101936.81;;;4.72;70.82
26531;BME280;14201;43.188;24.160;2022-12-19T15:05:18;101939.22;;;4.62;70.62
26531;BME280;14201;43.188;24.160;2022-12-19T15:07:47;101947.09;;;4.55;70.96
26531;BME280;14201;43.188;24.160;2022-12-19T15:10:20;101949.66;;;4.55;71.52